Time;durP1;ratioP1;P1;durP2;ratioP2;P2;SDS_P1;SDS_P2;PMS_P1;PMS_P2;Temp;Humidity;BMP_temperature;BMP_pressure;BME280_temperature;BME280_humidity;BME280_pressure;Samples;Min_cycle;Max_cycle;Signal;HPM_P1;HPM_P2
2022/12/31 05:08:51;;;;;;;2.70;1.67;;;;;;;18.87;62.17;96281.28;20829816;23;20244;-56
2022/12/31 05:18:50;;;;;;;3.10;1.67;;;;;;;18.87;62.33;96298.34;20148075;29;20434;-56
2022/12/31 05:28:50;;;;;;;5.17;1.80;;;;;;;18.87;61.92;96306.44;20147505;29;20224;-56
2022/12/31 05:38:48;;;;;;;0.50;0.47;;;;;;;17.76;62.39;96289.03;20146485;29;20221;-56
2022/12/31 05:48:47;;;;;;;3.03;0.80;;;;;;;18.60;61.66;96290.09;20162354;29;20216;-56
2022/12/31 05:58:45;;;;;;;0.87;0.50;;;;;;;18.84;61.37;96298.91;20161244;29;20217;-56
2022/12/31 06:08:44;;;;;;;0.63;0.50;;;;;;;18.95;61.08;96319.34;20158446;29;20252;-55
2022/12/31 06:18:42;;;;;;;0.87;0.60;;;;;;;19.05;61.09;96339.97;20160139;29;20225;-57
2022/12/31 06:28:42;;;;;;;0.60;0.60;;;;;;;19.10;61.33;96331.00;20159555;29;20280;-55
2022/12/31 06:38:41;;;;;;;0.70;0.70;;;;;;;19.11;61.44;96340.72;20158834;29;20221;-53
2022/12/31 06:48:43;;;;;;;1.40;0.70;;;;;;;19.10;61.77;96329.09;20158125;29;20224;-56
2022/12/31 06:58:42;;;;;;;0.83;0.60;;;;;;;19.10;62.18;96318.28;20140946;29;20240;-57
2022/12/31 07:08:49;;;;;;;0.60;0.60;;;;;;;19.09;62.17;96332.91;20156503;29;20234;-56
2022/12/31 07:18:53;;;;;;;1.57;0.77;;;;;;;19.09;62.47;96341.00;20155306;29;20244;-56
2022/12/31 07:29:10;;;;;;;2.30;0.60;;;;;;;19.22;62.47;96366.53;20154943;29;20407;-46
2022/12/31 07:39:13;;;;;;;1.20;1.00;;;;;;;19.15;62.89;96376.91;20155436;29;20391;-43
2022/12/31 07:49:13;;;;;;;1.33;0.70;;;;;;;19.15;63.11;96379.63;20153583;29;20420;-43
2022/12/31 08:09:49;;;;;;;1.57;0.70;;;;;;;19.15;63.32;96372.31;21160618;23;20229;-52
2022/12/31 08:19:48;;;;;;;3.37;1.00;;;;;;;19.16;63.16;96390.16;20151306;29;20382;-47
2022/12/31 08:30:01;;;;;;;1.63;0.67;;;;;;;19.25;62.79;96377.56;20150257;29;20221;-52
2022/12/31 08:40:14;;;;;;;1.10;0.70;;;;;;;19.16;63.20;96398.28;20150274;29;20240;-51
2022/12/31 08:50:16;;;;;;;2.67;0.70;;;;;;;19.12;63.30;96421.63;20149848;29;20220;-51
2022/12/31 09:00:17;;;;;;;0.80;0.60;;;;;;;19.14;63.19;96437.59;20148608;29;20212;-45
2022/12/31 09:10:24;;;;;;;3.70;1.23;;;;;;;19.30;62.96;96441.66;20140327;29;20516;-44
2022/12/31 09:20:25;;;;;;;0.80;0.70;;;;;;;19.49;62.33;96431.63;20140263;29;20365;-51
2022/12/31 09:30:48;;;;;;;2.20;0.67;;;;;;;19.60;62.50;96443.91;20118850;29;20220;-50
2022/12/31 09:41:06;;;;;;;1.90;0.70;;;;;;;19.68;62.04;96464.91;20147797;29;20223;-47
2022/12/31 09:51:21;;;;;;;1.63;0.90;;;;;;;19.67;62.64;96463.31;20137475;29;20232;-52
2022/12/31 10:01:35;;;;;;;5.03;0.90;;;;;;;19.78;62.44;96451.22;20153986;29;20436;-49
2022/12/31 10:11:53;;;;;;;3.27;0.90;;;;;;;19.70;62.93;96470.84;20182799;29;20247;-50
2022/12/31 10:22:05;;;;;;;3.40;0.80;;;;;;;19.83;63.03;96451.13;20176407;29;20228;-51
2022/12/31 10:32:16;;;;;;;0.90;0.70;;;;;;;19.93;62.77;96445.53;20158102;29;20227;-50
2022/12/31 10:42:44;;;;;;;1.23;0.60;;;;;;;19.98;62.75;96429.19;20157645;29;20387;-51
2022/12/31 10:53:14;;;;;;;1.87;0.77;;;;;;;20.02;62.59;96421.25;20155962;29;20224;-50
2022/12/31 11:04:00;;;;;;;2.37;0.73;;;;;;;20.08;62.15;96423.56;20139354;29;20232;-50
2022/12/31 11:14:29;;;;;;;1.90;0.70;;;;;;;20.15;61.92;96419.66;20155241;29;20248;-55
2022/12/31 11:24:41;;;;;;;4.50;1.30;;;;;;;20.07;62.22;96413.00;20147460;29;20238;-47
2022/12/31 11:35:13;;;;;;;4.37;1.03;;;;;;;20.05;63.03;96412.53;20141951;29;20226;-49
2022/12/31 11:45:22;;;;;;;2.00;1.00;;;;;;;20.10;62.41;96388.81;20060075;29;20247;-48
2022/12/31 11:55:34;;;;;;;1.73;0.93;;;;;;;20.07;62.75;96399.47;20075677;29;20217;-52
2022/12/31 12:05:34;;;;;;;89.37;30.87;;;;;;;19.98;63.96;96383.09;20128008;29;20227;-50
2022/12/31 12:15:37;;;;;;;172.60;47.23;;;;;;;19.91;63.47;96385.38;20220652;29;20239;-49
2022/12/31 12:25:39;;;;;;;118.20;36.63;;;;;;;19.89;63.96;96360.50;20133709;29;20237;-48
2022/12/31 12:35:39;;;;;;;131.63;35.83;;;;;;;19.90;64.65;96361.31;20132899;29;20251;-53
2022/12/31 12:45:44;;;;;;;106.37;30.87;;;;;;;19.88;65.36;96366.22;20151294;29;20224;-52
2022/12/31 12:56:01;;;;;;;68.00;22.17;;;;;;;19.80;63.85;96366.91;20072250;29;20249;-52
2022/12/31 13:06:18;;;;;;;57.87;18.57;;;;;;;19.75;63.71;96359.69;20071697;29;20580;-52
2022/12/31 13:16:24;;;;;;;63.13;19.77;;;;;;;19.71;63.87;96344.31;20063580;29;20240;-52
2022/12/31 13:26:27;;;;;;;56.23;18.63;;;;;;;19.70;63.45;96357.06;20086094;29;20233;-52
2022/12/31 13:36:31;;;;;;;60.37;18.33;;;;;;;19.67;63.30;96343.31;20085678;29;20217;-52
2022/12/31 13:46:39;;;;;;;59.63;17.53;;;;;;;19.63;63.87;96339.59;20068747;29;20272;-51
2022/12/31 13:56:44;;;;;;;48.20;14.10;;;;;;;19.59;62.77;96325.84;20084184;29;20221;-49
2022/12/31 14:06:46;;;;;;;38.50;12.40;;;;;;;19.58;62.40;96334.25;20083523;29;20244;-54
2022/12/31 14:16:51;;;;;;;33.90;11.93;;;;;;;19.57;63.08;96348.94;20082668;29;20259;-51
2022/12/31 14:26:54;;;;;;;36.07;12.63;;;;;;;19.53;62.71;96337.88;20079804;29;20233;-51
2022/12/31 14:37:02;;;;;;;37.90;12.87;;;;;;;19.51;62.37;96340.06;20080539;29;20217;-51
2022/12/31 14:47:13;;;;;;;35.23;11.87;;;;;;;19.48;62.44;96335.25;20079773;29;20276;-52
2022/12/31 14:57:24;;;;;;;29.57;10.80;;;;;;;19.48;62.71;96348.78;20078915;29;20209;-52
2022/12/31 15:07:28;;;;;;;35.67;11.97;;;;;;;19.45;63.02;96352.88;20061552;29;20243;-52
2022/12/31 15:17:43;;;;;;;4.97;1.57;;;;;;;18.73;58.44;96356.19;20081760;29;20221;-50
2022/12/31 15:27:42;;;;;;;3.17;1.00;;;;;;;18.32;58.57;96348.56;20150581;29;20231;-49
2022/12/31 15:37:42;;;;;;;1.30;1.20;;;;;;;18.95;57.81;96356.41;20144852;29;20220;-52
2022/12/31 15:47:43;;;;;;;1.97;1.20;;;;;;;19.12;58.19;96364.78;20130382;29;20240;-53
2022/12/31 15:57:43;;;;;;;2.63;0.80;;;;;;;19.22;58.51;96369.22;20128881;29;20538;-53
2022/12/31 16:07:41;;;;;;;4.17;1.20;;;;;;;19.26;58.58;96378.38;20126980;29;20235;-53
2022/12/31 16:17:44;;;;;;;2.93;1.10;;;;;;;19.30;59.13;96387.50;20143657;29;20374;-57
2022/12/31 16:27:42;;;;;;;4.37;1.20;;;;;;;19.48;59.06;96395.63;20126000;29;20288;-57
2022/12/31 16:37:41;;;;;;;2.03;1.10;;;;;;;19.65;59.13;96396.97;20142261;29;20220;-56
2022/12/31 16:47:42;;;;;;;1.70;1.07;;;;;;;19.73;59.50;96399.81;20141268;29;20224;-55
2022/12/31 16:57:44;;;;;;;2.17;1.17;;;;;;;19.71;59.63;96388.47;20122962;29;20217;-56
2022/12/31 17:07:42;;;;;;;1.60;1.00;;;;;;;19.71;60.11;96393.09;20139535;29;20524;-57
2022/12/31 17:17:42;;;;;;;1.20;0.90;;;;;;;19.74;59.76;96408.75;20139610;29;20540;-55
2022/12/31 17:27:40;;;;;;;1.90;1.00;;;;;;;19.73;59.54;96423.38;20146421;29;20224;-56
2022/12/31 17:37:39;;;;;;;2.70;1.13;;;;;;;19.73;60.67;96429.59;20130039;29;20228;-56
2022/12/31 17:47:40;;;;;;;4.23;1.53;;;;;;;19.74;60.42;96430.41;20146172;29;20224;-56
2022/12/31 17:57:47;;;;;;;2.63;0.90;;;;;;;19.75;61.07;96424.72;20150584;29;20245;-57
2022/12/31 18:07:46;;;;;;;4.80;1.33;;;;;;;19.77;61.29;96413.56;20160158;29;20232;-55
2022/12/31 18:17:45;;;;;;;2.23;0.87;;;;;;;19.76;60.98;96415.47;20159962;29;20242;-56
2022/12/31 18:27:47;;;;;;;2.13;0.90;;;;;;;19.75;61.33;96415.78;20159020;29;20418;-57
2022/12/31 18:37:46;;;;;;;2.87;0.93;;;;;;;19.72;61.57;96428.03;20163554;29;20527;-58
2022/12/31 18:47:44;;;;;;;1.03;0.93;;;;;;;19.74;61.15;96444.78;20161843;29;20428;-56
2022/12/31 18:57:43;;;;;;;2.13;0.93;;;;;;;19.82;60.88;96451.41;20161932;29;20393;-56
2022/12/31 19:07:41;;;;;;;1.40;0.90;;;;;;;19.80;61.25;96453.63;20157702;29;20235;-57
2022/12/31 19:17:41;;;;;;;1.87;1.20;;;;;;;19.79;61.15;96450.09;20138041;29;20231;-56
2022/12/31 19:27:38;;;;;;;4.63;1.20;;;;;;;19.80;60.89;96457.13;20137849;29;20240;-56
2022/12/31 19:37:38;;;;;;;1.57;1.10;;;;;;;19.78;61.28;96461.25;20136988;29;20216;-55
2022/12/31 19:47:36;;;;;;;1.33;0.93;;;;;;;19.75;61.59;96480.81;20136090;29;20236;-56
2022/12/31 19:57:39;;;;;;;1.47;0.90;;;;;;;19.71;61.25;96467.03;20154817;29;20530;-56
2022/12/31 20:07:38;;;;;;;2.67;1.03;;;;;;;19.73;61.78;96475.66;20136173;29;20236;-59
2022/12/31 20:17:40;;;;;;;2.03;0.77;;;;;;;19.75;61.51;96476.19;20151086;29;20260;-57
2022/12/31 20:27:38;;;;;;;2.40;0.90;;;;;;;19.78;61.07;96480.22;20133769;29;20267;-56
2022/12/31 20:37:37;;;;;;;2.77;1.00;;;;;;;19.79;61.45;96471.78;20149813;29;20220;-56
2022/12/31 20:47:35;;;;;;;1.43;1.13;;;;;;;19.80;61.44;96481.53;20149492;29;20228;-56
2022/12/31 20:57:35;;;;;;;2.43;1.00;;;;;;;19.80;61.60;96486.94;20148731;29;20281;-56
2022/12/31 21:07:33;;;;;;;1.40;1.30;;;;;;;19.79;60.92;96488.03;20132740;29;20330;-56
2022/12/31 21:17:32;;;;;;;1.63;1.17;;;;;;;19.76;61.52;96490.53;20148271;29;20247;-57
2022/12/31 21:27:35;;;;;;;2.37;0.97;;;;;;;19.74;61.07;96504.38;20147661;29;20381;-55
2022/12/31 21:37:35;;;;;;;1.77;1.20;;;;;;;19.75;61.42;96508.72;20156700;29;20283;-61
2022/12/31 21:58:14;;;;;;;1.63;0.90;;;;;;;19.90;61.30;96516.59;20160631;29;20640;-56
